createdAt,value
2019-01-15T00:00:31.077Z,1016.24
2019-01-15T00:01:40.014Z,1016.21
2019-01-15T00:02:48.977Z,1016.19
2019-01-15T00:03:58.212Z,1016.15
2019-01-15T00:05:07.899Z,1016.17
2019-01-15T00:06:17.366Z,1016.2
2019-01-15T00:07:26.559Z,1016.21
2019-01-15T00:08:35.992Z,1016.21
2019-01-15T00:09:45.163Z,1016.21
2019-01-15T00:10:54.847Z,1016.18
2019-01-15T00:12:07.731Z,1016.19
2019-01-15T00:13:17.436Z,1016.23
2019-01-15T00:14:26.872Z,1016.23
2019-01-15T00:15:36.421Z,1016.23
2019-01-15T00:16:45.362Z,1016.23
2019-01-15T00:17:55.288Z,1016.22
2019-01-15T00:19:04.740Z,1016.29
2019-01-15T00:20:14.170Z,1016.25
2019-01-15T00:21:23.356Z,1016.2
2019-01-15T00:22:32.796Z,1016.21
2019-01-15T00:23:41.986Z,1016.19
2019-01-15T00:24:51.162Z,1016.23
2019-01-15T00:26:00.358Z,1016.21
2019-01-15T00:27:09.783Z,1016.23
2019-01-15T00:28:19.202Z,1016.25
2019-01-15T00:29:28.148Z,1016.26
2019-01-15T00:30:37.577Z,1016.27
2019-01-15T00:31:47.038Z,1016.31
2019-01-15T00:32:56.972Z,1016.23
2019-01-15T00:34:05.659Z,1016.32
2019-01-15T00:35:14.861Z,1016.33
2019-01-15T00:36:24.308Z,1016.36
2019-01-15T00:37:33.755Z,1016.37
2019-01-15T00:38:42.719Z,1016.34
2019-01-15T00:39:52.137Z,1016.35
2019-01-15T00:41:01.330Z,1016.34
2019-01-15T00:42:15.165Z,1016.38
2019-01-15T00:43:24.718Z,1016.37
2019-01-15T00:44:34.030Z,1016.4
2019-01-15T00:45:43.703Z,1016.4
2019-01-15T00:46:53.627Z,1016.43
2019-01-15T00:48:02.846Z,1016.39
2019-01-15T00:49:12.297Z,1016.39
2019-01-15T00:50:21.486Z,1016.4
2019-01-15T00:51:30.918Z,1016.38
2019-01-15T00:52:40.369Z,1016.41
2019-01-15T00:53:49.344Z,1016.42
2019-01-15T00:54:58.287Z,1016.4
2019-01-15T00:56:07.232Z,1016.44
2019-01-15T00:57:16.180Z,1016.42
2019-01-15T00:58:25.365Z,1016.46
2019-01-15T00:59:34.554Z,1016.41
2019-01-15T01:00:43.258Z,1016.42
2019-01-15T01:01:52.441Z,1016.4
2019-01-15T01:03:01.866Z,1016.42
2019-01-15T01:04:11.066Z,1016.45
2019-01-15T01:05:20.024Z,1016.39
2019-01-15T01:06:29.740Z,1016.34
2019-01-15T01:07:38.968Z,1016.29
2019-01-15T01:08:48.395Z,1016.31
2019-01-15T01:09:57.908Z,1016.34
2019-01-15T01:11:07.148Z,1016.36
2019-01-15T01:12:22.116Z,1016.35
2019-01-15T01:13:31.434Z,1016.37
2019-01-15T01:14:40.877Z,1016.36
2019-01-15T01:15:50.315Z,1016.35
2019-01-15T01:16:59.508Z,1016.33
2019-01-15T01:18:09.190Z,1016.36
2019-01-15T01:19:18.611Z,1016.3
2019-01-15T01:20:27.356Z,1016.35
2019-01-15T01:21:37.671Z,1016.35
2019-01-15T01:22:46.892Z,1016.37
2019-01-15T01:23:56.585Z,1016.4
2019-01-15T01:25:05.768Z,1016.43
2019-01-15T01:26:15.287Z,1016.42
2019-01-15T01:27:24.969Z,1016.42
2019-01-15T01:28:33.888Z,1016.43
2019-01-15T01:29:43.084Z,1016.46
2019-01-15T01:30:52.537Z,1016.43
2019-01-15T01:32:01.724Z,1016.45
2019-01-15T01:33:11.165Z,1016.46
2019-01-15T01:34:20.620Z,1016.49
2019-01-15T01:35:30.098Z,1016.47
2019-01-15T01:36:39.024Z,1016.49
2019-01-15T01:37:48.222Z,1016.58
2019-01-15T01:38:57.142Z,1016.56
2019-01-15T01:40:06.594Z,1016.56
2019-01-15T01:41:15.781Z,1016.52
2019-01-15T01:42:29.360Z,1016.5
2019-01-15T01:43:38.992Z,1016.55
2019-01-15T01:44:47.928Z,1016.52
2019-01-15T01:45:57.372Z,1016.51
2019-01-15T01:47:07.049Z,1016.51
2019-01-15T01:48:16.236Z,1016.49
2019-01-15T01:49:25.163Z,1016.49
2019-01-15T01:50:34.847Z,1016.45
2019-01-15T01:51:43.783Z,1016.51
2019-01-15T01:52:52.734Z,1016.48
2019-01-15T01:54:02.410Z,1016.48
2019-01-15T01:55:11.864Z,1016.47
2019-01-15T01:56:21.630Z,1016.45
2019-01-15T01:57:31.331Z,1016.48
2019-01-15T01:58:40.531Z,1016.49
2019-01-15T01:59:50.473Z,1016.51
2019-01-15T02:00:59.895Z,1016.48
2019-01-15T02:02:09.147Z,1016.45
2019-01-15T02:03:18.575Z,1016.52
2019-01-15T02:04:27.264Z,1016.55
2019-01-15T02:05:36.736Z,1016.59
2019-01-15T02:06:46.204Z,1016.62
2019-01-15T02:07:55.406Z,1016.59
2019-01-15T02:09:04.843Z,1016.63
2019-01-15T02:10:14.035Z,1016.6
2019-01-15T02:11:22.971Z,1016.61
2019-01-15T02:12:36.754Z,1016.61
2019-01-15T02:13:46.681Z,1016.56
2019-01-15T02:14:55.916Z,1016.52
2019-01-15T02:16:04.866Z,1016.54
2019-01-15T02:17:14.817Z,1016.51
2019-01-15T02:18:24.245Z,1016.47
2019-01-15T02:19:33.201Z,1016.54
2019-01-15T02:20:42.876Z,1016.6
2019-01-15T02:21:52.081Z,1016.59
2019-01-15T02:23:01.313Z,1016.57
2019-01-15T02:24:10.015Z,1016.57
2019-01-15T02:25:19.438Z,1016.58
2019-01-15T02:26:28.859Z,1016.58
2019-01-15T02:27:38.299Z,1016.6
2019-01-15T02:28:47.755Z,1016.61
2019-01-15T02:29:56.976Z,1016.65
2019-01-15T02:31:06.182Z,1016.62
2019-01-15T02:32:15.127Z,1016.63
2019-01-15T02:33:24.819Z,1016.52
2019-01-15T02:34:34.765Z,1016.53
2019-01-15T02:35:43.720Z,1016.52
2019-01-15T02:36:53.413Z,1016.5
2019-01-15T02:38:02.592Z,1016.54
2019-01-15T02:39:11.586Z,1016.58
2019-01-15T02:40:21.289Z,1016.59
2019-01-15T02:41:30.993Z,1016.58
2019-01-15T02:42:46.340Z,1016.61
2019-01-15T02:43:56.104Z,1016.58
2019-01-15T02:45:05.806Z,1016.54
2019-01-15T02:46:15.504Z,1016.58
2019-01-15T02:47:24.953Z,1016.59
2019-01-15T02:48:34.635Z,1016.59
2019-01-15T02:49:43.827Z,1016.6
2019-01-15T02:50:53.258Z,1016.58
2019-01-15T02:52:02.979Z,1016.57
2019-01-15T02:53:12.693Z,1016.55
2019-01-15T02:54:21.906Z,1016.51
2019-01-15T02:55:30.846Z,1016.47
2019-01-15T02:56:40.056Z,1016.48
2019-01-15T02:57:49.086Z,1016.47
2019-01-15T02:58:58.515Z,1016.48
2019-01-15T03:00:08.219Z,1016.45
2019-01-15T03:01:17.643Z,1016.43
2019-01-15T03:02:27.412Z,1016.46
2019-01-15T03:03:36.399Z,1016.47
2019-01-15T03:04:45.592Z,1016.46
2019-01-15T03:05:54.776Z,1016.48
2019-01-15T03:07:04.265Z,1016.46
2019-01-15T03:08:13.704Z,1016.46
2019-01-15T03:09:22.876Z,1016.44
2019-01-15T03:10:32.071Z,1016.44
2019-01-15T03:11:41.502Z,1016.46
2019-01-15T03:12:55.208Z,1016.49
2019-01-15T03:14:05.565Z,1016.51
2019-01-15T03:15:15.007Z,1016.45
2019-01-15T03:16:24.206Z,1016.46
2019-01-15T03:17:33.657Z,1016.41
2019-01-15T03:18:43.346Z,1016.34
2019-01-15T03:19:52.547Z,1016.26
2019-01-15T03:21:02.491Z,1016.22
2019-01-15T03:22:12.438Z,1016.17
2019-01-15T03:23:22.489Z,1016.13
2019-01-15T03:24:31.970Z,1016.1
2019-01-15T03:25:41.150Z,1016.11
2019-01-15T03:26:50.848Z,1016.16
2019-01-15T03:28:00.278Z,1016.15
2019-01-15T03:29:10.161Z,1016.19
2019-01-15T03:30:19.661Z,1016.18
2019-01-15T03:31:29.773Z,1016.19
2019-01-15T03:32:39.495Z,1016.23
2019-01-15T03:33:49.264Z,1016.16
2019-01-15T03:34:58.462Z,1016.14
2019-01-15T03:36:08.147Z,1016.12
2019-01-15T03:37:17.837Z,1016.06
2019-01-15T03:38:27.035Z,1016.05
2019-01-15T03:39:36.235Z,1016.03
2019-01-15T03:40:45.932Z,1016.07
2019-01-15T03:41:55.419Z,1016.07
2019-01-15T03:43:04.632Z,1016.01
2019-01-15T03:44:14.097Z,1015.97
2019-01-15T03:45:23.536Z,1015.94
2019-01-15T03:46:33.309Z,1015.98
2019-01-15T03:47:42.769Z,1016.03
2019-01-15T03:48:52.483Z,1016.05
2019-01-15T03:50:01.661Z,1016.06
2019-01-15T03:51:11.364Z,1016.09
2019-01-15T03:52:20.790Z,1016.09
2019-01-15T03:53:29.742Z,1016.13
2019-01-15T03:54:38.926Z,1016.15
2019-01-15T03:55:47.914Z,1016.16
2019-01-15T03:56:57.634Z,1016.11
2019-01-15T03:58:07.069Z,1016.07
2019-01-15T03:59:16.768Z,1016.04
2019-01-15T04:00:26.205Z,1016.07
2019-01-15T04:01:35.447Z,1016.05
2019-01-15T04:02:45.140Z,1016
2019-01-15T04:03:54.822Z,1015.99
2019-01-15T04:05:04.263Z,1016.03
2019-01-15T04:06:13.446Z,1016.08
2019-01-15T04:07:22.647Z,1016.09
2019-01-15T04:08:32.363Z,1016.1
2019-01-15T04:09:41.603Z,1016.06
2019-01-15T04:10:51.060Z,1016.08
2019-01-15T04:12:00.510Z,1016.01
2019-01-15T04:13:11.307Z,1015.97
2019-01-15T04:14:22.227Z,1015.95
2019-01-15T04:15:31.934Z,1015.94
2019-01-15T04:16:40.868Z,1015.92
2019-01-15T04:17:50.330Z,1015.89
2019-01-15T04:18:59.526Z,1015.96
2019-01-15T04:20:08.994Z,1015.93
2019-01-15T04:21:18.711Z,1015.86
2019-01-15T04:22:27.891Z,1015.86
2019-01-15T04:23:37.695Z,1015.83
2019-01-15T04:24:46.892Z,1015.84
2019-01-15T04:25:56.327Z,1015.84
2019-01-15T04:27:05.525Z,1015.82
2019-01-15T04:28:15.036Z,1015.79
2019-01-15T04:29:24.486Z,1015.81
2019-01-15T04:30:34.466Z,1015.82
2019-01-15T04:31:43.912Z,1015.82
2019-01-15T04:32:52.828Z,1015.83
2019-01-15T04:34:02.015Z,1015.83
2019-01-15T04:35:11.200Z,1015.84
2019-01-15T04:36:20.702Z,1015.84
2019-01-15T04:37:29.936Z,1015.85
2019-01-15T04:38:39.643Z,1015.82
2019-01-15T04:39:49.095Z,1015.8
2019-01-15T04:40:58.281Z,1015.81
2019-01-15T04:42:07.559Z,1015.81
2019-01-15T04:43:19.743Z,1015.78
2019-01-15T04:44:29.550Z,1015.79
2019-01-15T04:45:38.757Z,1015.76
2019-01-15T04:46:48.185Z,1015.75
2019-01-15T04:47:56.891Z,1015.75
2019-01-15T04:49:06.350Z,1015.74
2019-01-15T04:50:15.813Z,1015.77
2019-01-15T04:51:24.770Z,1015.77
2019-01-15T04:52:33.980Z,1015.73
2019-01-15T04:53:43.745Z,1015.74
2019-01-15T04:54:53.199Z,1015.73
2019-01-15T04:56:02.395Z,1015.7
2019-01-15T04:57:11.602Z,1015.69
2019-01-15T04:58:20.530Z,1015.61
2019-01-15T04:59:29.973Z,1015.53
2019-01-15T05:00:39.173Z,1015.52
2019-01-15T05:01:48.391Z,1015.47
2019-01-15T05:02:57.832Z,1015.5
2019-01-15T05:04:07.773Z,1015.46
2019-01-15T05:05:16.716Z,1015.44
2019-01-15T05:06:25.661Z,1015.49
2019-01-15T05:07:34.621Z,1015.49
2019-01-15T05:08:44.049Z,1015.49
2019-01-15T05:09:53.019Z,1015.46
2019-01-15T05:11:02.217Z,1015.49
2019-01-15T05:12:11.916Z,1015.53
2019-01-15T05:13:27.297Z,1015.52
2019-01-15T05:14:36.951Z,1015.51
2019-01-15T05:15:46.437Z,1015.53
2019-01-15T05:16:56.484Z,1015.5
2019-01-15T05:18:06.027Z,1015.43
2019-01-15T05:19:15.452Z,1015.45
2019-01-15T05:20:24.394Z,1015.44
2019-01-15T05:21:33.590Z,1015.42
2019-01-15T05:22:42.780Z,1015.42
2019-01-15T05:23:52.473Z,1015.37
2019-01-15T05:25:01.937Z,1015.42
2019-01-15T05:26:11.404Z,1015.4
2019-01-15T05:27:21.345Z,1015.41
2019-01-15T05:28:30.510Z,1015.39
2019-01-15T05:29:39.980Z,1015.31
2019-01-15T05:30:49.464Z,1015.37
2019-01-15T05:31:59.140Z,1015.34
2019-01-15T05:33:08.328Z,1015.34
2019-01-15T05:34:17.761Z,1015.31
2019-01-15T05:35:27.227Z,1015.32
2019-01-15T05:36:36.665Z,1015.32
2019-01-15T05:37:45.623Z,1015.32
2019-01-15T05:38:55.111Z,1015.33
2019-01-15T05:40:04.310Z,1015.31
2019-01-15T05:41:14.011Z,1015.33
2019-01-15T05:42:23.444Z,1015.31
2019-01-15T05:43:35.594Z,1015.3
2019-01-15T05:44:45.444Z,1015.26
2019-01-15T05:45:54.654Z,1015.27
2019-01-15T05:47:03.837Z,1015.28
2019-01-15T05:48:13.280Z,1015.2
2019-01-15T05:49:22.217Z,1015.27
2019-01-15T05:50:32.193Z,1015.23
2019-01-15T05:51:41.385Z,1015.26
2019-01-15T05:52:50.566Z,1015.27
2019-01-15T05:54:00.510Z,1015.24
2019-01-15T05:55:10.413Z,1015.22
2019-01-15T05:56:20.349Z,1015.25
2019-01-15T05:57:30.029Z,1015.24
2019-01-15T05:58:39.201Z,1015.22
2019-01-15T05:59:48.870Z,1015.23
2019-01-15T06:00:58.040Z,1015.23
2019-01-15T06:02:07.216Z,1015.21
2019-01-15T06:03:16.659Z,1015.23
2019-01-15T06:04:25.613Z,1015.24
2019-01-15T06:05:35.066Z,1015.23
2019-01-15T06:06:44.507Z,1015.12
2019-01-15T06:07:53.739Z,1015.13
2019-01-15T06:09:02.936Z,1015.13
2019-01-15T06:10:12.146Z,1015.11
2019-01-15T06:11:21.586Z,1015.04
2019-01-15T06:12:30.762Z,1015.04
2019-01-15T06:13:42.688Z,1015.06
2019-01-15T06:14:51.839Z,1015.14
2019-01-15T06:16:01.026Z,1015.03
2019-01-15T06:17:09.996Z,1015.09
2019-01-15T06:18:18.688Z,1015.11
2019-01-15T06:19:27.862Z,1015.1
2019-01-15T06:20:37.089Z,1015.09
2019-01-15T06:21:46.769Z,1015.01
2019-01-15T06:22:57.639Z,1015.07
2019-01-15T06:24:07.092Z,1015.04
2019-01-15T06:25:15.859Z,1015.07
2019-01-15T06:26:25.642Z,1015.04
2019-01-15T06:27:35.576Z,1015.06
2019-01-15T06:28:44.743Z,1015.03
2019-01-15T06:29:54.473Z,1015.01
2019-01-15T06:31:03.650Z,1015.01
2019-01-15T06:32:13.590Z,1014.95
2019-01-15T06:33:23.262Z,1014.94
2019-01-15T06:34:32.734Z,1014.95
2019-01-15T06:35:42.481Z,1014.92
2019-01-15T06:36:52.445Z,1014.94
2019-01-15T06:38:01.617Z,1014.93
2019-01-15T06:39:11.062Z,1014.91
2019-01-15T06:40:20.249Z,1014.92
2019-01-15T06:41:29.948Z,1014.93
2019-01-15T06:42:39.379Z,1014.9
2019-01-15T06:43:50.043Z,1014.9
2019-01-15T06:44:59.692Z,1014.93
2019-01-15T06:46:08.879Z,1014.91
2019-01-15T06:47:18.326Z,1014.9
2019-01-15T06:48:28.064Z,1014.87
2019-01-15T06:49:37.262Z,1014.89
2019-01-15T06:50:47.182Z,1014.91
2019-01-15T06:51:56.869Z,1014.91
2019-01-15T06:53:06.826Z,1014.9
2019-01-15T06:54:16.275Z,1014.85
2019-01-15T06:55:25.470Z,1014.86
2019-01-15T06:56:34.895Z,1014.85
2019-01-15T06:57:44.100Z,1014.88
2019-01-15T06:58:53.531Z,1014.85
2019-01-15T07:00:02.702Z,1014.87
2019-01-15T07:01:12.380Z,1014.88
2019-01-15T07:02:21.561Z,1014.86
2019-01-15T07:03:30.992Z,1014.89
2019-01-15T07:04:43.926Z,1014.87
2019-01-15T07:05:53.572Z,1014.87
2019-01-15T07:07:03.494Z,1014.9
2019-01-15T07:08:12.695Z,1014.9
2019-01-15T07:09:22.123Z,1014.9
2019-01-15T07:10:31.815Z,1014.88
2019-01-15T07:11:40.751Z,1014.94
2019-01-15T07:12:49.935Z,1014.91
2019-01-15T07:13:58.869Z,1014.92
2019-01-15T07:15:07.809Z,1014.92
2019-01-15T07:16:16.504Z,1014.91
2019-01-15T07:17:26.196Z,1014.94
2019-01-15T07:18:35.360Z,1014.91
2019-01-15T07:19:44.780Z,1014.93
2019-01-15T07:20:53.967Z,1014.94
2019-01-15T07:22:04.759Z,1014.96
2019-01-15T07:23:13.439Z,1014.95
2019-01-15T07:24:22.885Z,1014.93
2019-01-15T07:25:32.622Z,1014.92
2019-01-15T07:26:41.822Z,1014.91
2019-01-15T07:27:50.782Z,1014.9
2019-01-15T07:28:59.504Z,1014.87
2019-01-15T07:30:09.186Z,1014.91
2019-01-15T07:31:18.389Z,1014.93
2019-01-15T07:32:27.582Z,1014.94
2019-01-15T07:33:37.284Z,1014.91
2019-01-15T07:34:45.977Z,1014.99
2019-01-15T07:35:55.454Z,1014.94
2019-01-15T07:37:04.908Z,1014.94
2019-01-15T07:38:14.095Z,1014.94
2019-01-15T07:39:23.532Z,1014.96
2019-01-15T07:40:32.984Z,1014.94
2019-01-15T07:41:41.923Z,1015.04
2019-01-15T07:42:51.371Z,1015.04
2019-01-15T07:44:04.370Z,1015.04
2019-01-15T07:45:13.708Z,1015.07
2019-01-15T07:46:23.197Z,1015.09
2019-01-15T07:47:32.622Z,1015.14
2019-01-15T07:48:42.547Z,1015.15
2019-01-15T07:49:51.994Z,1015.14
2019-01-15T07:51:01.957Z,1015.14
2019-01-15T07:52:11.397Z,1015.1
2019-01-15T07:53:22.077Z,1015.11
2019-01-15T07:54:31.786Z,1015.03
2019-01-15T07:55:40.982Z,1015.07
2019-01-15T07:56:50.217Z,1015.1
2019-01-15T07:57:59.925Z,1015.07
2019-01-15T07:59:09.444Z,1015.08
2019-01-15T08:00:18.643Z,1015.18
2019-01-15T08:01:28.336Z,1015.18
2019-01-15T08:02:38.254Z,1015.17
2019-01-15T08:03:47.947Z,1015.17
2019-01-15T08:04:57.170Z,1015.18
2019-01-15T08:06:06.369Z,1015.13
2019-01-15T08:07:15.793Z,1015.12
2019-01-15T08:08:24.740Z,1015.06
2019-01-15T08:09:34.181Z,1015.05
2019-01-15T08:10:43.365Z,1015.04
2019-01-15T08:11:59.532Z,1015.02
2019-01-15T08:13:08.974Z,1015.07
2019-01-15T08:14:18.155Z,1015.06
2019-01-15T08:15:27.099Z,1015.08
2019-01-15T08:16:36.031Z,1015.08
2019-01-15T08:17:45.707Z,1015.06
2019-01-15T08:18:54.884Z,1015.04
2019-01-15T08:20:03.824Z,1015.04
2019-01-15T08:21:13.005Z,1015
2019-01-15T08:22:22.437Z,1014.99
2019-01-15T08:23:31.882Z,1014.93
2019-01-15T08:24:41.330Z,1014.93
2019-01-15T08:25:50.758Z,1014.93
2019-01-15T08:26:59.947Z,1014.91
2019-01-15T08:28:09.933Z,1014.92
2019-01-15T08:29:18.870Z,1014.97
2019-01-15T08:30:28.364Z,1014.94
2019-01-15T08:31:38.055Z,1014.93
2019-01-15T08:32:47.231Z,1014.96
2019-01-15T08:33:56.426Z,1014.95
2019-01-15T08:35:06.109Z,1014.94
2019-01-15T08:36:15.284Z,1015.02
2019-01-15T08:37:24.962Z,1015
2019-01-15T08:38:33.888Z,1014.98
2019-01-15T08:39:43.322Z,1014.99
2019-01-15T08:40:52.759Z,1015.03
2019-01-15T08:42:02.436Z,1015.06
2019-01-15T08:43:11.626Z,1015.01
2019-01-15T08:44:21.067Z,1015
2019-01-15T08:45:30.501Z,1015.04
2019-01-15T08:46:39.671Z,1015.09
2019-01-15T08:47:50.172Z,1015.05
2019-01-15T08:48:59.190Z,1015.03
2019-01-15T08:50:08.441Z,1015.01
2019-01-15T08:51:18.406Z,1014.97
2019-01-15T08:52:27.833Z,1014.98
2019-01-15T08:53:37.260Z,1015.06
2019-01-15T08:54:46.459Z,1014.99
2019-01-15T08:55:55.409Z,1014.95
2019-01-15T08:57:04.871Z,1014.96
2019-01-15T08:58:14.307Z,1014.93
2019-01-15T08:59:23.249Z,1014.96
2019-01-15T09:00:32.982Z,1014.93
2019-01-15T09:01:41.928Z,1014.91
2019-01-15T09:02:51.608Z,1014.91
2019-01-15T09:04:01.365Z,1014.91
2019-01-15T09:05:11.180Z,1014.93
2019-01-15T09:06:19.873Z,1014.92
2019-01-15T09:07:29.058Z,1014.91
2019-01-15T09:08:38.254Z,1014.92
2019-01-15T09:09:47.435Z,1014.92
2019-01-15T09:10:56.633Z,1014.97
2019-01-15T09:12:06.220Z,1014.96
2019-01-15T09:13:15.708Z,1014.98
2019-01-15T09:14:26.822Z,1014.97
2019-01-15T09:15:36.873Z,1014.99
2019-01-15T09:16:45.831Z,1014.97
2019-01-15T09:17:55.466Z,1014.96
2019-01-15T09:19:04.160Z,1015.02
2019-01-15T09:20:13.601Z,1015
2019-01-15T09:21:22.760Z,1015
2019-01-15T09:22:31.947Z,1015.08
2019-01-15T09:23:42.345Z,1015.04
2019-01-15T09:24:51.028Z,1015.03
2019-01-15T09:26:00.012Z,1015
2019-01-15T09:27:09.295Z,1015.04
2019-01-15T09:28:18.473Z,1015.05
2019-01-15T09:29:28.222Z,1015.05
2019-01-15T09:30:38.194Z,1015.07
2019-01-15T09:31:47.870Z,1015.06
2019-01-15T09:32:57.581Z,1015.09
2019-01-15T09:34:07.523Z,1015.12
2019-01-15T09:35:17.030Z,1015.09
2019-01-15T09:36:25.968Z,1015.08
2019-01-15T09:37:35.401Z,1015.08
2019-01-15T09:38:44.603Z,1015.09
2019-01-15T09:39:54.280Z,1015.1
2019-01-15T09:41:03.717Z,1015.15
2019-01-15T09:42:13.152Z,1015.08
2019-01-15T09:43:22.845Z,1015.07
2019-01-15T09:44:34.165Z,1015.1
2019-01-15T09:45:43.950Z,1015.07
2019-01-15T09:46:52.894Z,1015.09
2019-01-15T09:48:02.067Z,1015.11
2019-01-15T09:49:11.016Z,1015.09
2019-01-15T09:50:20.462Z,1015.08
2019-01-15T09:51:29.666Z,1015.11
2019-01-15T09:52:39.441Z,1015.02
2019-01-15T09:53:48.866Z,1015.13
2019-01-15T09:54:58.915Z,1015.06
2019-01-15T09:56:08.344Z,1015.14
2019-01-15T09:57:17.818Z,1015.15
2019-01-15T09:58:27.360Z,1015.07
2019-01-15T09:59:36.323Z,1015.17
2019-01-15T10:00:45.818Z,1015.09
2019-01-15T10:01:55.020Z,1015.13
2019-01-15T10:03:04.524Z,1015.11
2019-01-15T10:04:13.977Z,1015.03
2019-01-15T10:05:23.174Z,1015.06
2019-01-15T10:06:32.349Z,1015.11
2019-01-15T10:07:41.542Z,1015.07
2019-01-15T10:08:50.569Z,1015.1
2019-01-15T10:09:59.834Z,1015.06
2019-01-15T10:11:09.034Z,1015.05
2019-01-15T10:12:18.209Z,1015.03
2019-01-15T10:13:27.396Z,1015.05
2019-01-15T10:14:41.153Z,1015.06
2019-01-15T10:15:50.560Z,1015.03
2019-01-15T10:17:00.248Z,1014.99
2019-01-15T10:18:09.940Z,1015.01
2019-01-15T10:19:19.377Z,1014.98
2019-01-15T10:20:28.315Z,1014.9
2019-01-15T10:21:37.510Z,1014.87
2019-01-15T10:22:46.745Z,1014.86
2019-01-15T10:23:55.917Z,1014.86
2019-01-15T10:25:04.863Z,1014.89
2019-01-15T10:26:14.293Z,1014.91
2019-01-15T10:27:23.470Z,1014.84
2019-01-15T10:28:32.929Z,1014.88
2019-01-15T10:29:41.865Z,1014.83
2019-01-15T10:30:51.558Z,1014.81
2019-01-15T10:32:00.846Z,1014.83
2019-01-15T10:33:09.812Z,1014.75
2019-01-15T10:34:18.761Z,1014.76
2019-01-15T10:35:28.208Z,1014.76
2019-01-15T10:36:37.507Z,1014.76
2019-01-15T10:37:46.968Z,1014.69
2019-01-15T10:38:56.168Z,1014.72
2019-01-15T10:40:05.866Z,1014.75
2019-01-15T10:41:15.090Z,1014.7
2019-01-15T10:42:23.792Z,1014.75
2019-01-15T10:43:32.483Z,1014.68
2019-01-15T10:44:48.422Z,1014.68
2019-01-15T10:45:58.262Z,1014.73
2019-01-15T10:47:07.204Z,1014.62
2019-01-15T10:48:16.896Z,1014.62
2019-01-15T10:49:26.322Z,1014.64
2019-01-15T10:50:35.505Z,1014.58
2019-01-15T10:51:45.175Z,1014.61
2019-01-15T10:52:54.141Z,1014.49
2019-01-15T10:54:03.854Z,1014.51
2019-01-15T10:55:12.537Z,1014.47
2019-01-15T10:56:21.478Z,1014.45
2019-01-15T10:57:30.162Z,1014.47
2019-01-15T10:58:39.086Z,1014.41
2019-01-15T10:59:47.777Z,1014.46
2019-01-15T11:00:56.978Z,1014.45
2019-01-15T11:02:05.929Z,1014.44
2019-01-15T11:03:15.866Z,1014.46
2019-01-15T11:04:25.576Z,1014.4
2019-01-15T11:05:34.510Z,1014.39
2019-01-15T11:06:43.953Z,1014.39
2019-01-15T11:07:53.144Z,1014.46
2019-01-15T11:09:02.368Z,1014.42
2019-01-15T11:10:11.305Z,1014.43
2019-01-15T11:11:20.988Z,1014.43
2019-01-15T11:12:30.673Z,1014.48
2019-01-15T11:13:39.676Z,1014.46
2019-01-15T11:14:55.807Z,1014.42
2019-01-15T11:16:05.524Z,1014.42
2019-01-15T11:17:15.229Z,1014.34
2019-01-15T11:18:24.911Z,1014.34
2019-01-15T11:19:34.091Z,1014.38
2019-01-15T11:20:44.040Z,1014.34
2019-01-15T11:21:53.223Z,1014.32
2019-01-15T11:23:02.664Z,1014.34
2019-01-15T11:24:12.095Z,1014.32
2019-01-15T11:25:22.050Z,1014.29
2019-01-15T11:26:31.508Z,1014.23
2019-01-15T11:27:40.438Z,1014.24
2019-01-15T11:28:49.642Z,1014.26
2019-01-15T11:29:58.650Z,1014.2
2019-01-15T11:31:07.590Z,1014.12
2019-01-15T11:32:16.831Z,1014.15
2019-01-15T11:33:25.539Z,1014.15
2019-01-15T11:34:34.716Z,1014.17
2019-01-15T11:35:43.915Z,1014.13
2019-01-15T11:36:53.356Z,1014.16
2019-01-15T11:38:02.551Z,1014.11
2019-01-15T11:39:11.788Z,1014.15
2019-01-15T11:40:21.535Z,1014.14
2019-01-15T11:41:30.971Z,1014.12
2019-01-15T11:42:40.397Z,1014.16
2019-01-15T11:43:49.571Z,1014.21
2019-01-15T11:45:03.300Z,1014.09
2019-01-15T11:46:12.732Z,1014.2
2019-01-15T11:47:21.932Z,1014.13
2019-01-15T11:48:31.372Z,1014.2
2019-01-15T11:49:40.557Z,1014.11
2019-01-15T11:50:49.536Z,1014.16
2019-01-15T11:51:58.733Z,1014.2
2019-01-15T11:53:08.402Z,1014.18
2019-01-15T11:54:17.586Z,1014.14
2019-01-15T11:55:27.027Z,1014.16
2019-01-15T11:56:36.486Z,1014.18
2019-01-15T11:57:45.691Z,1014.1
2019-01-15T11:58:55.383Z,1014.11
2019-01-15T12:00:05.058Z,1014.14
2019-01-15T12:01:14.767Z,1014.09
2019-01-15T12:02:24.216Z,1014.07
2019-01-15T12:03:32.906Z,1014.09
2019-01-15T12:04:42.589Z,1014.1
2019-01-15T12:05:51.773Z,1014.08
2019-01-15T12:07:01.452Z,1014.05
2019-01-15T12:08:10.894Z,1014.06
2019-01-15T12:09:20.332Z,1014.03
2019-01-15T12:10:29.824Z,1014.07
2019-01-15T12:11:39.006Z,1014.07
2019-01-15T12:12:48.200Z,1014.06
2019-01-15T12:13:57.404Z,1014.04
2019-01-15T12:15:10.880Z,1014.1
2019-01-15T12:16:20.508Z,1014.05
2019-01-15T12:17:29.445Z,1014.05
2019-01-15T12:18:38.633Z,1014
2019-01-15T12:19:47.581Z,1013.96
2019-01-15T12:20:57.008Z,1013.96
2019-01-15T12:22:06.699Z,1013.91
2019-01-15T12:23:15.896Z,1013.98
2019-01-15T12:24:25.825Z,1013.98
2019-01-15T12:25:35.265Z,1014.01
2019-01-15T12:26:44.716Z,1013.93
2019-01-15T12:27:54.152Z,1013.97
2019-01-15T12:29:03.331Z,1013.98
2019-01-15T12:30:13.882Z,1013.97
2019-01-15T12:31:23.820Z,1014.02
2019-01-15T12:32:33.244Z,1013.98
2019-01-15T12:33:42.436Z,1014.01
2019-01-15T12:34:51.623Z,1014
2019-01-15T12:36:00.811Z,1014.02
2019-01-15T12:37:10.262Z,1014.02
2019-01-15T12:38:19.186Z,1013.93
2019-01-15T12:39:28.380Z,1013.96
2019-01-15T12:40:37.580Z,1013.93
2019-01-15T12:41:47.258Z,1013.89
2019-01-15T12:42:56.975Z,1013.92
2019-01-15T12:44:06.663Z,1013.9
2019-01-15T12:45:18.290Z,1013.9
2019-01-15T12:46:27.939Z,1013.91
2019-01-15T12:47:37.139Z,1013.85
2019-01-15T12:48:46.075Z,1013.84
2019-01-15T12:49:55.289Z,1013.79
2019-01-15T12:51:04.527Z,1013.79
2019-01-15T12:52:13.970Z,1013.78
2019-01-15T12:53:23.154Z,1013.75
2019-01-15T12:54:32.845Z,1013.79
2019-01-15T12:55:41.818Z,1013.83
2019-01-15T12:56:51.510Z,1013.76
2019-01-15T12:58:01.336Z,1013.71
2019-01-15T12:59:10.279Z,1013.75
2019-01-15T13:00:19.485Z,1013.72
2019-01-15T13:01:28.929Z,1013.73
2019-01-15T13:02:38.154Z,1013.7
2019-01-15T13:03:47.579Z,1013.75
2019-01-15T13:04:57.301Z,1013.74
2019-01-15T13:06:06.996Z,1013.71
2019-01-15T13:07:16.686Z,1013.64
2019-01-15T13:08:25.607Z,1013.7
2019-01-15T13:09:35.284Z,1013.72
2019-01-15T13:10:44.704Z,1013.71
2019-01-15T13:11:53.917Z,1013.71
2019-01-15T13:13:03.849Z,1013.68
2019-01-15T13:14:13.027Z,1013.75
2019-01-15T13:15:26.097Z,1013.7
2019-01-15T13:16:41.907Z,1013.68
2019-01-15T13:17:51.310Z,1013.69
2019-01-15T13:19:00.479Z,1013.66
2019-01-15T13:20:10.196Z,1013.59
2019-01-15T13:21:19.655Z,1013.59
2019-01-15T13:22:28.617Z,1013.66
2019-01-15T13:23:38.042Z,1013.65
2019-01-15T13:24:47.728Z,1013.61
2019-01-15T13:25:56.670Z,1013.62
2019-01-15T13:27:06.140Z,1013.58
2019-01-15T13:28:15.587Z,1013.69
2019-01-15T13:29:24.533Z,1013.61
2019-01-15T13:30:33.461Z,1013.59
2019-01-15T13:31:42.903Z,1013.6
2019-01-15T13:32:51.887Z,1013.55
2019-01-15T13:34:01.396Z,1013.56
2019-01-15T13:35:10.847Z,1013.61
2019-01-15T13:36:20.283Z,1013.59
2019-01-15T13:37:29.999Z,1013.58
2019-01-15T13:38:39.184Z,1013.54
2019-01-15T13:39:48.874Z,1013.58
2019-01-15T13:40:58.053Z,1013.5
2019-01-15T13:42:07.746Z,1013.54
2019-01-15T13:43:16.937Z,1013.6
2019-01-15T13:44:26.631Z,1013.41
2019-01-15T13:45:41.663Z,1013.44
2019-01-15T13:46:51.555Z,1013.43
2019-01-15T13:48:00.979Z,1013.44
2019-01-15T13:49:10.430Z,1013.42
2019-01-15T13:50:19.613Z,1013.41
2019-01-15T13:51:29.058Z,1013.42
2019-01-15T13:52:38.283Z,1013.36
2019-01-15T13:53:47.742Z,1013.32
2019-01-15T13:54:57.180Z,1013.39
2019-01-15T13:56:06.388Z,1013.35
2019-01-15T13:57:15.828Z,1013.31
2019-01-15T13:58:25.036Z,1013.31
2019-01-15T13:59:34.497Z,1013.28
2019-01-15T14:00:43.715Z,1013.29
2019-01-15T14:01:54.133Z,1013.31
2019-01-15T14:03:03.329Z,1013.28
2019-01-15T14:04:12.761Z,1013.3